Time;durP1;ratioP1;P1;durP2;ratioP2;P2;SDS_P1;SDS_P2;PMS_P1;PMS_P2;Temp;Humidity;BMP_temperature;BMP_pressure;BME280_temperature;BME280_humidity;BME280_pressure;Samples;Min_cycle;Max_cycle;Signal;HPM_P1;HPM_P2
2022/01/21 00:01:53;;;;;;;;;;;3.80;99.90;;;;;;5124391;28;19927;-72
2022/01/21 00:04:19;;;;;;;;;;;3.70;99.90;;;;;;5122872;28;19908;-72
2022/01/21 00:06:45;;;;;;;;;;;3.70;99.90;;;;;;5119530;27;20054;-73
2022/01/21 00:09:10;;;;;;;;;;;3.70;99.90;;;;;;5126145;28;19911;-73
2022/01/21 00:11:39;;;;;;;;;;;3.70;99.90;;;;;;5124801;27;19916;-73
2022/01/21 00:14:11;;;;;;;;;;;3.70;99.90;;;;;;5129087;27;19916;-73
2022/01/21 00:16:46;;;;;;;;;;;3.70;99.90;;;;;;5122268;27;19912;-74
2022/01/21 00:19:23;;;;;;;;;;;3.70;99.90;;;;;;5122802;28;19912;-73
2022/01/21 00:30:13;;;;;;;;;;;3.70;99.90;;;;;;5124839;28;19972;-72
2022/01/21 00:32:42;;;;;;;;;;;3.70;99.90;;;;;;5123553;27;19946;-72
2022/01/21 00:35:10;;;;;;;;;;;3.60;99.90;;;;;;5139381;27;19912;-74
2022/01/21 00:37:36;;;;;;;;;;;3.60;99.90;;;;;;5120001;28;19918;-73
2022/01/21 00:40:03;;;;;;;;;;;3.60;99.90;;;;;;5121844;28;20007;-72
2022/01/21 00:44:59;;;;;;;;;;;3.50;99.90;;;;;;5129860;27;20335;-72
2022/01/21 00:47:26;;;;;;;;;;;3.50;99.90;;;;;;5126680;27;19921;-73
2022/01/21 00:49:51;;;;;;;;;;;3.60;99.90;;;;;;5126173;27;19963;-73
2022/01/21 00:52:17;;;;;;;;;;;3.50;99.90;;;;;;5127814;27;20358;-73
2022/01/21 00:54:43;;;;;;;;;;;3.50;99.90;;;;;;5123919;27;20369;-72
2022/01/21 00:57:08;;;;;;;;;;;3.40;99.90;;;;;;5126125;27;20003;-72
2022/01/21 00:59:34;;;;;;;;;;;3.50;99.90;;;;;;5128935;27;19915;-72
2022/01/21 01:02:00;;;;;;;;;;;3.60;99.90;;;;;;5124965;27;19968;-72
2022/01/21 01:04:26;;;;;;;;;;;3.60;99.90;;;;;;5127703;27;19923;-73
2022/01/21 01:06:51;;;;;;;;;;;3.70;99.90;;;;;;5123645;27;19971;-72
2022/01/21 01:09:17;;;;;;;;;;;3.70;99.90;;;;;;5130402;27;19958;-72
2022/01/21 01:22:25;;;;;;;;;;;3.70;99.90;;;;;;5121236;27;20486;-72
2022/01/21 01:27:41;;;;;;;;;;;3.50;99.90;;;;;;5126120;27;19966;-72
2022/01/21 01:30:11;;;;;;;;;;;3.40;99.90;;;;;;5125351;27;19976;-72
2022/01/21 01:32:37;;;;;;;;;;;3.40;99.90;;;;;;5124364;27;19980;-72
2022/01/21 01:35:04;;;;;;;;;;;3.40;99.90;;;;;;5124641;27;20460;-72
2022/01/21 01:37:45;;;;;;;;;;;3.40;99.90;;;;;;5127371;27;19987;-72
2022/01/21 01:40:25;;;;;;;;;;;3.40;99.90;;;;;;5123999;27;21733;-73
2022/01/21 01:50:51;;;;;;;;;;;3.50;99.90;;;;;;5144081;27;19915;-72
2022/01/21 01:53:18;;;;;;;;;;;3.60;99.90;;;;;;5141289;27;19941;-71
2022/01/21 01:55:44;;;;;;;;;;;3.60;99.90;;;;;;5134636;27;20377;-72
2022/01/21 01:58:12;;;;;;;;;;;3.60;99.90;;;;;;5140822;27;19950;-72
2022/01/21 02:00:38;;;;;;;;;;;3.50;99.90;;;;;;5132954;27;19923;-72
2022/01/21 02:03:08;;;;;;;;;;;3.50;99.90;;;;;;5139150;27;19919;-73
2022/01/21 02:05:34;;;;;;;;;;;3.40;99.90;;;;;;5140137;27;19988;-72
2022/01/21 02:07:59;;;;;;;;;;;3.30;99.90;;;;;;5133243;27;19974;-72
2022/01/21 02:10:25;;;;;;;;;;;3.30;99.90;;;;;;5136788;27;19939;-72
2022/01/21 02:12:52;;;;;;;;;;;3.30;99.90;;;;;;5132052;27;19912;-72
2022/01/21 02:15:20;;;;;;;;;;;3.30;99.90;;;;;;5129406;27;19911;-71
2022/01/21 02:23:14;;;;;;;;;;;3.30;99.90;;;;;;5128474;27;19965;-74
2022/01/21 02:25:40;;;;;;;;;;;3.30;99.90;;;;;;5130825;27;19915;-73
2022/01/21 02:28:14;;;;;;;;;;;3.40;99.90;;;;;;5128856;27;19918;-72
2022/01/21 02:30:51;;;;;;;;;;;3.40;99.90;;;;;;5126782;27;20382;-72
2022/01/21 02:33:16;;;;;;;;;;;3.50;99.90;;;;;;5126481;27;19977;-73
2022/01/21 02:35:42;;;;;;;;;;;3.60;99.90;;;;;;5127064;27;19958;-71
2022/01/21 02:38:07;;;;;;;;;;;3.70;99.90;;;;;;5127564;27;19927;-71
2022/01/21 02:40:33;;;;;;;;;;;3.60;99.90;;;;;;5119135;27;20385;-72
2022/01/21 02:42:58;;;;;;;;;;;3.60;99.90;;;;;;5125547;27;19911;-73
2022/01/21 02:45:24;;;;;;;;;;;3.60;99.90;;;;;;5129315;27;20377;-72
2022/01/21 02:47:50;;;;;;;;;;;3.70;99.90;;;;;;5126758;27;19933;-71
2022/01/21 02:50:16;;;;;;;;;;;3.70;99.90;;;;;;5126000;27;19911;-72
2022/01/21 02:52:54;;;;;;;;;;;3.80;99.90;;;;;;5124924;27;19920;-72
2022/01/21 02:55:20;;;;;;;;;;;3.80;99.90;;;;;;5126472;27;19972;-72
2022/01/21 02:57:45;;;;;;;;;;;4.20;99.90;;;;;;5124757;27;19947;-72
2022/01/21 03:00:11;;;;;;;;;;;4.70;99.90;;;;;;5125403;27;19917;-72
2022/01/21 03:02:37;;;;;;;;;;;4.90;99.90;;;;;;5120893;27;19926;-72
2022/01/21 03:05:08;;;;;;;;;;;5.00;99.90;;;;;;5128469;27;19922;-71
2022/01/21 03:07:34;;;;;;;;;;;5.10;99.90;;;;;;5128092;27;19942;-72
2022/01/21 03:10:00;;;;;;;;;;;5.10;99.90;;;;;;5129025;27;19963;-71
2022/01/21 03:12:26;;;;;;;;;;;5.10;99.90;;;;;;5120831;27;20241;-72
2022/01/21 03:14:51;;;;;;;;;;;5.10;99.90;;;;;;5123152;27;19998;-73
2022/01/21 03:17:17;;;;;;;;;;;5.20;99.90;;;;;;5124342;27;20338;-71
2022/01/21 03:19:42;;;;;;;;;;;5.10;99.90;;;;;;5125582;27;19911;-71
2022/01/21 03:22:09;;;;;;;;;;;5.10;99.90;;;;;;5126483;27;20509;-72
2022/01/21 03:24:34;;;;;;;;;;;5.10;99.90;;;;;;5125748;27;19919;-72
2022/01/21 03:27:00;;;;;;;;;;;5.00;99.90;;;;;;5124622;27;20540;-72
2022/01/21 03:29:25;;;;;;;;;;;5.10;99.90;;;;;;5126046;27;19911;-72
2022/01/21 03:31:51;;;;;;;;;;;5.10;99.90;;;;;;5126607;27;19915;-72
2022/01/21 03:34:17;;;;;;;;;;;5.10;99.90;;;;;;5123264;27;19918;-72
2022/01/21 03:36:42;;;;;;;;;;;5.00;99.90;;;;;;5129174;27;19912;-72
2022/01/21 03:39:08;;;;;;;;;;;5.00;99.90;;;;;;5119107;27;19972;-72
2022/01/21 03:41:34;;;;;;;;;;;5.10;99.90;;;;;;5126225;27;19922;-72
2022/01/21 03:43:59;;;;;;;;;;;5.10;99.90;;;;;;5124055;27;19918;-71
2022/01/21 03:46:25;;;;;;;;;;;5.00;99.90;;;;;;5125395;27;20135;-72
2022/01/21 03:48:51;;;;;;;;;;;5.10;99.90;;;;;;5118897;28;19911;-72
2022/01/21 03:51:17;;;;;;;;;;;5.10;99.90;;;;;;5130233;27;19969;-72
2022/01/21 03:53:44;;;;;;;;;;;5.10;99.90;;;;;;5123819;27;19964;-72
2022/01/21 03:56:09;;;;;;;;;;;4.90;99.90;;;;;;5118223;28;20047;-72
2022/01/21 03:58:35;;;;;;;;;;;5.00;99.90;;;;;;5123747;28;19998;-72
2022/01/21 04:01:01;;;;;;;;;;;5.00;99.90;;;;;;5127376;27;19990;-72
2022/01/21 04:03:27;;;;;;;;;;;5.00;99.90;;;;;;5129460;27;19918;-72
2022/01/21 04:05:52;;;;;;;;;;;5.10;99.90;;;;;;5128802;27;19931;-72
2022/01/21 04:08:18;;;;;;;;;;;5.10;99.90;;;;;;5121950;28;19962;-71
2022/01/21 04:10:48;;;;;;;;;;;5.00;99.90;;;;;;5125065;28;19922;-71
2022/01/21 04:13:15;;;;;;;;;;;5.00;99.90;;;;;;5128708;28;20365;-72
2022/01/21 04:15:48;;;;;;;;;;;5.10;99.90;;;;;;5128671;27;19919;-71
2022/01/21 04:18:14;;;;;;;;;;;5.20;99.90;;;;;;5123129;27;19934;-71
2022/01/21 04:20:41;;;;;;;;;;;5.20;99.90;;;;;;5127771;27;20337;-71
2022/01/21 04:23:07;;;;;;;;;;;5.20;99.90;;;;;;5123701;27;19911;-72
2022/01/21 04:25:33;;;;;;;;;;;5.30;99.90;;;;;;5128060;27;20281;-72
2022/01/21 04:27:59;;;;;;;;;;;5.30;99.90;;;;;;5130612;27;19915;-72
2022/01/21 04:30:24;;;;;;;;;;;5.40;99.90;;;;;;5131944;27;19912;-73
2022/01/21 04:32:50;;;;;;;;;;;5.40;99.90;;;;;;5146661;27;19926;-71
2022/01/21 04:35:15;;;;;;;;;;;5.40;99.90;;;;;;5143241;27;19961;-72
2022/01/21 04:37:49;;;;;;;;;;;5.40;99.90;;;;;;5129885;27;19951;-72
2022/01/21 04:40:17;;;;;;;;;;;5.40;99.90;;;;;;5126787;27;19912;-72
2022/01/21 04:48:13;;;;;;;;;;;5.40;99.90;;;;;;5127284;27;19941;-71
2022/01/21 04:50:50;;;;;;;;;;;5.40;99.90;;;;;;5142635;27;19926;-72
2022/01/21 04:53:16;;;;;;;;;;;5.40;99.90;;;;;;5137317;27;19941;-73
2022/01/21 04:55:41;;;;;;;;;;;5.50;99.90;;;;;;5144138;27;20441;-72
2022/01/21 04:58:07;;;;;;;;;;;5.60;99.90;;;;;;5127054;27;19915;-72
2022/01/21 05:00:33;;;;;;;;;;;5.60;99.90;;;;;;5123471;27;20051;-72
2022/01/21 05:02:59;;;;;;;;;;;5.60;99.90;;;;;;5129145;27;19987;-72
2022/01/21 05:05:25;;;;;;;;;;;5.60;99.90;;;;;;5134770;27;19915;-72
2022/01/21 05:07:50;;;;;;;;;;;5.60;99.90;;;;;;5126614;27;20025;-72
2022/01/21 05:10:16;;;;;;;;;;;5.60;99.90;;;;;;5128998;27;19911;-72
2022/01/21 05:12:42;;;;;;;;;;;5.60;99.90;;;;;;5125503;27;19916;-72
2022/01/21 05:15:17;;;;;;;;;;;5.60;99.90;;;;;;5132082;27;20333;-72
2022/01/21 05:17:48;;;;;;;;;;;5.60;99.90;;;;;;5126910;27;20521;-72
2022/01/21 05:20:14;;;;;;;;;;;5.60;99.90;;;;;;5128512;27;19919;-72
2022/01/21 05:22:40;;;;;;;;;;;5.70;99.90;;;;;;5129779;27;19912;-71
2022/01/21 05:25:05;;;;;;;;;;;5.80;99.90;;;;;;5128836;27;19919;-72
2022/01/21 05:27:31;;;;;;;;;;;6.10;99.90;;;;;;5130906;27;19916;-72
2022/01/21 05:29:57;;;;;;;;;;;6.20;99.90;;;;;;5127632;27;20084;-72
2022/01/21 05:32:22;;;;;;;;;;;6.20;99.90;;;;;;5123092;27;19929;-72
2022/01/21 05:34:48;;;;;;;;;;;6.30;99.90;;;;;;5121508;27;20049;-72
2022/01/21 05:37:13;;;;;;;;;;;6.30;99.90;;;;;;5133088;27;19964;-71
2022/01/21 05:39:39;;;;;;;;;;;6.20;99.90;;;;;;5120908;27;20010;-72
2022/01/21 05:42:06;;;;;;;;;;;6.20;99.90;;;;;;5128196;27;19945;-72
2022/01/21 05:46:59;;;;;;;;;;;6.20;99.90;;;;;;5116618;27;19923;-72
2022/01/21 05:49:26;;;;;;;;;;;6.20;99.90;;;;;;5113307;27;19915;-72
2022/01/21 05:52:03;;;;;;;;;;;6.20;99.90;;;;;;5120467;27;19915;-72
2022/01/21 05:54:28;;;;;;;;;;;6.20;99.90;;;;;;5126026;27;19935;-72
2022/01/21 05:56:55;;;;;;;;;;;6.20;99.90;;;;;;5127558;27;19926;-71
2022/01/21 05:59:20;;;;;;;;;;;6.20;99.90;;;;;;5127477;27;20007;-72
2022/01/21 06:01:46;;;;;;;;;;;6.10;99.90;;;;;;5123474;27;19946;-73
2022/01/21 06:04:12;;;;;;;;;;;6.00;99.90;;;;;;5127909;27;20292;-72
2022/01/21 06:06:38;;;;;;;;;;;6.00;99.90;;;;;;5121517;27;20400;-73
2022/01/21 06:09:04;;;;;;;;;;;6.00;99.90;;;;;;5131803;27;19918;-73
2022/01/21 06:11:29;;;;;;;;;;;6.00;99.90;;;;;;5130777;27;20392;-74
2022/01/21 06:13:55;;;;;;;;;;;5.90;99.90;;;;;;5133026;27;19915;-72
2022/01/21 06:16:20;;;;;;;;;;;5.90;99.90;;;;;;5126491;27;19919;-73
2022/01/21 06:18:46;;;;;;;;;;;5.80;99.90;;;;;;5124978;27;20013;-72
2022/01/21 06:21:12;;;;;;;;;;;5.70;99.90;;;;;;5131483;27;19911;-73
2022/01/21 06:23:38;;;;;;;;;;;5.70;99.90;;;;;;5129632;27;19934;-72
2022/01/21 06:26:04;;;;;;;;;;;5.60;99.90;;;;;;5132972;27;20447;-72
2022/01/21 06:28:29;;;;;;;;;;;5.70;99.90;;;;;;5122128;27;19920;-74
2022/01/21 06:30:55;;;;;;;;;;;5.70;99.90;;;;;;5124894;27;19922;-72
2022/01/21 06:33:21;;;;;;;;;;;5.80;99.90;;;;;;5117634;27;19966;-74
2022/01/21 06:35:47;;;;;;;;;;;5.80;99.90;;;;;;5117277;27;19915;-75
2022/01/21 06:38:13;;;;;;;;;;;5.70;99.90;;;;;;5126990;27;20408;-73
2022/01/21 06:40:39;;;;;;;;;;;5.70;99.90;;;;;;5118683;27;20006;-75
2022/01/21 06:43:04;;;;;;;;;;;5.80;99.90;;;;;;5122905;27;19912;-74
2022/01/21 06:45:30;;;;;;;;;;;5.70;99.90;;;;;;5122591;27;19949;-74
2022/01/21 06:47:58;;;;;;;;;;;5.60;99.90;;;;;;5128050;27;19919;-73
2022/01/21 06:50:27;;;;;;;;;;;5.60;99.90;;;;;;5123016;27;20385;-73
2022/01/21 06:52:52;;;;;;;;;;;5.60;99.90;;;;;;5128834;27;19911;-74
2022/01/21 06:55:18;;;;;;;;;;;5.70;99.90;;;;;;5119957;27;19916;-72
2022/01/21 06:57:44;;;;;;;;;;;5.70;99.90;;;;;;5128274;27;19919;-73
2022/01/21 07:00:11;;;;;;;;;;;5.70;99.90;;;;;;5124581;27;19993;-75
2022/01/21 07:02:37;;;;;;;;;;;5.60;99.90;;;;;;5125020;27;19916;-74
2022/01/21 07:05:04;;;;;;;;;;;5.60;99.90;;;;;;5126987;27;19915;-74
2022/01/21 07:07:30;;;;;;;;;;;5.50;99.90;;;;;;5124826;27;19912;-73
2022/01/21 07:09:56;;;;;;;;;;;5.50;99.90;;;;;;5131443;27;19907;-74
2022/01/21 07:12:21;;;;;;;;;;;5.60;99.90;;;;;;5112973;27;19935;-74
2022/01/21 07:14:47;;;;;;;;;;;5.70;99.90;;;;;;5123387;27;19911;-74
2022/01/21 07:17:13;;;;;;;;;;;5.90;99.90;;;;;;5130409;27;19930;-74
2022/01/21 07:19:38;;;;;;;;;;;6.00;99.90;;;;;;5126356;27;19923;-73
2022/01/21 07:22:04;;;;;;;;;;;6.10;99.90;;;;;;5124042;27;19911;-74
2022/01/21 07:24:29;;;;;;;;;;;6.20;99.90;;;;;;5127390;27;19911;-74
2022/01/21 07:26:55;;;;;;;;;;;6.30;99.90;;;;;;5122908;27;19920;-77
2022/01/21 07:29:21;;;;;;;;;;;6.30;99.90;;;;;;5127283;27;19930;-73
2022/01/21 07:31:46;;;;;;;;;;;6.30;99.90;;;;;;5126119;27;19919;-73
2022/01/21 07:34:12;;;;;;;;;;;6.40;99.90;;;;;;5127888;27;19918;-74
2022/01/21 07:36:37;;;;;;;;;;;6.40;99.90;;;;;;5119698;27;19916;-73
2022/01/21 07:39:03;;;;;;;;;;;6.40;99.90;;;;;;5127078;27;19911;-74
2022/01/21 07:41:29;;;;;;;;;;;6.30;99.90;;;;;;5123496;27;19972;-74
2022/01/21 07:43:55;;;;;;;;;;;6.20;99.90;;;;;;5128277;27;19919;-74
2022/01/21 07:46:21;;;;;;;;;;;6.10;99.90;;;;;;5128433;28;19919;-74
2022/01/21 07:48:47;;;;;;;;;;;6.00;99.90;;;;;;5122144;28;20030;-75
2022/01/21 07:51:12;;;;;;;;;;;6.00;99.90;;;;;;5119708;27;20065;-74
2022/01/21 07:53:38;;;;;;;;;;;6.00;99.90;;;;;;5118257;27;19934;-73
2022/01/21 07:56:04;;;;;;;;;;;5.90;99.90;;;;;;5124059;27;19935;-75
2022/01/21 07:58:30;;;;;;;;;;;6.00;99.90;;;;;;5124006;27;19912;-73
2022/01/21 08:00:56;;;;;;;;;;;6.00;99.90;;;;;;5123690;27;20009;-74
2022/01/21 08:03:23;;;;;;;;;;;6.20;99.90;;;;;;5126546;27;19976;-72
2022/01/21 08:05:48;;;;;;;;;;;6.20;99.90;;;;;;5127855;27;20031;-74
2022/01/21 08:08:14;;;;;;;;;;;6.30;99.90;;;;;;5121306;27;20412;-72
2022/01/21 08:10:40;;;;;;;;;;;6.40;99.90;;;;;;5132415;27;19933;-73
2022/01/21 08:13:05;;;;;;;;;;;6.40;99.90;;;;;;5127120;27;20370;-73
2022/01/21 08:15:31;;;;;;;;;;;6.50;99.90;;;;;;5129058;27;19911;-73
2022/01/21 08:17:57;;;;;;;;;;;6.60;99.90;;;;;;5124630;27;19915;-73
2022/01/21 08:20:22;;;;;;;;;;;6.60;99.90;;;;;;5129568;27;19918;-73
2022/01/21 08:22:48;;;;;;;;;;;6.70;99.90;;;;;;5129578;27;20445;-73
2022/01/21 08:25:13;;;;;;;;;;;6.80;99.90;;;;;;5128605;27;19920;-73
2022/01/21 08:27:39;;;;;;;;;;;6.90;99.90;;;;;;5132723;27;19916;-74
2022/01/21 08:30:06;;;;;;;;;;;6.90;99.90;;;;;;5132545;27;19915;-74
2022/01/21 08:32:32;;;;;;;;;;;6.80;99.90;;;;;;5129939;27;19926;-74
2022/01/21 08:34:57;;;;;;;;;;;6.90;99.90;;;;;;5128859;27;19912;-74
2022/01/21 08:37:23;;;;;;;;;;;6.90;99.90;;;;;;5121665;27;20034;-72
2022/01/21 08:39:50;;;;;;;;;;;6.90;99.90;;;;;;5125596;27;20011;-72
2022/01/21 08:42:16;;;;;;;;;;;7.00;99.90;;;;;;5122867;27;20006;-72
2022/01/21 08:44:41;;;;;;;;;;;7.00;99.90;;;;;;5134422;27;19939;-72
2022/01/21 08:47:07;;;;;;;;;;;7.10;99.90;;;;;;5128867;27;19911;-73
2022/01/21 08:49:33;;;;;;;;;;;7.10;99.90;;;;;;5126099;27;19968;-73
2022/01/21 08:51:59;;;;;;;;;;;7.10;99.90;;;;;;5131567;27;19919;-73
2022/01/21 08:54:26;;;;;;;;;;;7.20;99.90;;;;;;5132317;27;19925;-73
2022/01/21 08:56:53;;;;;;;;;;;7.20;99.90;;;;;;5131420;27;19915;-73
2022/01/21 08:59:19;;;;;;;;;;;7.20;99.90;;;;;;5132145;27;20369;-73
2022/01/21 09:01:45;;;;;;;;;;;7.20;99.90;;;;;;5124328;27;19923;-73
2022/01/21 09:04:11;;;;;;;;;;;7.20;99.90;;;;;;5131805;27;19912;-73
2022/01/21 09:06:37;;;;;;;;;;;7.10;99.90;;;;;;5129161;27;19922;-74
2022/01/21 09:09:03;;;;;;;;;;;7.10;99.90;;;;;;5131457;27;19956;-73
2022/01/21 09:11:29;;;;;;;;;;;7.20;99.90;;;;;;5139000;27;19919;-73
2022/01/21 09:13:56;;;;;;;;;;;7.10;99.90;;;;;;5140173;27;20396;-75
2022/01/21 09:16:21;;;;;;;;;;;7.20;99.90;;;;;;5141052;27;19961;-72
2022/01/21 09:18:58;;;;;;;;;;;7.20;99.90;;;;;;5139089;27;19911;-74
2022/01/21 09:21:26;;;;;;;;;;;7.30;99.90;;;;;;5129740;27;19975;-73
2022/01/21 09:23:52;;;;;;;;;;;7.30;99.90;;;;;;5126555;27;19944;-74
2022/01/21 09:26:19;;;;;;;;;;;7.30;99.90;;;;;;5129211;27;20190;-73
2022/01/21 09:28:45;;;;;;;;;;;7.30;99.90;;;;;;5128398;27;19911;-72
2022/01/21 09:31:11;;;;;;;;;;;7.30;99.90;;;;;;5132510;27;19922;-72
2022/01/21 09:33:36;;;;;;;;;;;7.40;99.90;;;;;;5121236;27;20002;-73
2022/01/21 09:36:02;;;;;;;;;;;7.40;99.90;;;;;;5124077;27;20246;-71
2022/01/21 09:38:29;;;;;;;;;;;7.50;99.90;;;;;;5120435;27;19923;-74
2022/01/21 09:40:55;;;;;;;;;;;7.50;99.90;;;;;;5137746;27;19918;-74
2022/01/21 09:43:21;;;;;;;;;;;7.60;99.90;;;;;;5135264;27;19911;-73
2022/01/21 09:45:53;;;;;;;;;;;7.70;99.90;;;;;;5128062;27;19911;-73
2022/01/21 09:48:22;;;;;;;;;;;7.80;99.90;;;;;;5122534;27;19923;-73
2022/01/21 09:50:52;;;;;;;;;;;7.80;99.90;;;;;;5124688;27;20405;-73
2022/01/21 09:53:29;;;;;;;;;;;7.70;99.90;;;;;;5122655;27;19911;-72
2022/01/21 09:55:58;;;;;;;;;;;7.80;99.90;;;;;;5127476;27;19919;-74
2022/01/21 09:58:25;;;;;;;;;;;7.90;99.90;;;;;;5127198;27;19955;-73
2022/01/21 10:00:51;;;;;;;;;;;8.00;99.90;;;;;;5119499;27;19915;-74
2022/01/21 10:03:22;;;;;;;;;;;8.00;99.90;;;;;;5130321;27;19919;-73
2022/01/21 10:05:49;;;;;;;;;;;7.90;99.90;;;;;;5132402;27;20218;-74
2022/01/21 10:08:15;;;;;;;;;;;7.90;99.90;;;;;;5129411;27;20016;-74
2022/01/21 10:10:42;;;;;;;;;;;8.00;99.90;;;;;;5122783;27;20001;-73
2022/01/21 10:13:09;;;;;;;;;;;8.10;99.90;;;;;;5132994;27;19911;-72
2022/01/21 10:15:36;;;;;;;;;;;7.90;99.90;;;;;;5125948;27;19911;-72
2022/01/21 10:18:05;;;;;;;;;;;8.00;99.90;;;;;;5133628;27;20000;-73
2022/01/21 10:20:31;;;;;;;;;;;8.00;99.90;;;;;;5132241;27;19956;-73
2022/01/21 10:22:58;;;;;;;;;;;8.00;99.90;;;;;;5126561;27;19911;-73
2022/01/21 10:25:24;;;;;;;;;;;8.00;99.90;;;;;;5124505;27;19912;-72
2022/01/21 10:27:49;;;;;;;;;;;8.00;99.90;;;;;;5120539;27;19919;-72
2022/01/21 10:30:19;;;;;;;;;;;8.10;99.90;;;;;;5136145;27;19938;-73
2022/01/21 10:32:45;;;;;;;;;;;8.00;99.90;;;;;;5140275;27;19968;-73
2022/01/21 10:35:32;;;;;;;;;;;7.90;99.90;;;;;;5141339;27;19907;-73
2022/01/21 10:38:18;;;;;;;;;;;8.00;99.90;;;;;;5132270;27;19951;-66
2022/01/21 10:40:44;;;;;;;;;;;8.20;99.90;;;;;;5123574;27;19912;-68
2022/01/21 10:43:14;;;;;;;;;;;8.10;99.90;;;;;;5125448;27;19911;-67
2022/01/21 10:46:09;;;;;;;;;;;8.00;99.90;;;;;;5131760;27;19908;-67
2022/01/21 10:48:53;;;;;;;;;;;7.90;99.90;;;;;;5118824;27;19911;-67
2022/01/21 10:51:20;;;;;;;;;;;7.90;99.90;;;;;;5133697;27;19915;-67
2022/01/21 10:53:46;;;;;;;;;;;7.90;99.90;;;;;;5130924;27;20014;-64
2022/01/21 10:56:12;;;;;;;;;;;8.00;99.90;;;;;;5122970;27;19937;-64
2022/01/21 10:58:39;;;;;;;;;;;8.20;99.90;;;;;;5128456;27;19916;-66
2022/01/21 11:01:11;;;;;;;;;;;8.30;99.90;;;;;;5117651;27;19912;-66
2022/01/21 11:03:54;;;;;;;;;;;8.10;99.90;;;;;;5131739;27;20015;-65
2022/01/21 11:06:23;;;;;;;;;;;8.20;99.90;;;;;;5131184;27;19915;-65
2022/01/21 11:08:48;;;;;;;;;;;8.30;99.90;;;;;;5132664;27;20315;-64
2022/01/21 11:11:24;;;;;;;;;;;8.30;99.90;;;;;;5125812;27;19940;-64
2022/01/21 11:13:54;;;;;;;;;;;8.20;99.90;;;;;;5120899;27;19919;-64
2022/01/21 11:16:23;;;;;;;;;;;8.10;99.90;;;;;;5132589;27;19914;-64
2022/01/21 11:18:52;;;;;;;;;;;8.10;99.90;;;;;;5126557;27;19912;-64
2022/01/21 11:21:18;;;;;;;;;;;8.20;99.90;;;;;;5125079;27;20006;-67
2022/01/21 11:23:43;;;;;;;;;;;7.90;99.90;;;;;;5126839;27;19959;-67
2022/01/21 11:26:14;;;;;;;;;;;8.00;99.90;;;;;;5126431;27;19997;-66
2022/01/21 11:28:49;;;;;;;;;;;7.80;99.90;;;;;;5119464;27;19911;-66
2022/01/21 11:31:16;;;;;;;;;;;7.70;99.90;;;;;;5117582;27;19996;-68
2022/01/21 11:33:41;;;;;;;;;;;7.70;99.90;;;;;;5128710;27;19919;-68
2022/01/21 11:36:07;;;;;;;;;;;7.70;99.90;;;;;;5129827;27;20296;-69
2022/01/21 11:38:37;;;;;;;;;;;7.60;99.90;;;;;;5125919;27;19964;-67
2022/01/21 11:41:04;;;;;;;;;;;7.50;99.90;;;;;;5131120;27;19915;-66
2022/01/21 11:43:31;;;;;;;;;;;7.70;99.90;;;;;;5125055;27;20014;-66
2022/01/21 11:51:01;;;;;;;;;;;7.80;99.90;;;;;;5129007;27;20339;-66
2022/01/21 11:53:47;;;;;;;;;;;7.90;99.90;;;;;;5122970;27;20353;-66
2022/01/21 11:56:35;;;;;;;;;;;7.80;99.90;;;;;;5129257;27;19919;-67
2022/01/21 11:59:23;;;;;;;;;;;7.90;99.90;;;;;;5130504;27;20353;-67
2022/01/21 12:01:52;;;;;;;;;;;8.00;99.90;;;;;;5119216;27;19907;-65
2022/01/21 12:04:29;;;;;;;;;;;8.10;99.90;;;;;;5118307;27;19911;-68
2022/01/21 12:07:00;;;;;;;;;;;8.00;99.90;;;;;;5111633;28;19923;-67
2022/01/21 12:09:44;;;;;;;;;;;8.10;99.90;;;;;;5132295;27;19918;-68
2022/01/21 12:12:16;;;;;;;;;;;8.10;99.90;;;;;;5129113;28;20456;-65
2022/01/21 12:14:49;;;;;;;;;;;8.20;99.90;;;;;;5126641;28;20376;-67
2022/01/21 12:17:34;;;;;;;;;;;8.10;99.90;;;;;;5120591;28;19919;-67
2022/01/21 12:20:07;;;;;;;;;;;8.20;99.90;;;;;;5128892;28;19916;-68
2022/01/21 12:22:34;;;;;;;;;;;8.10;98.90;;;;;;5123214;28;19923;-68
2022/01/21 12:25:10;;;;;;;;;;;8.00;97.80;;;;;;5117302;28;19915;-65
2022/01/21 12:27:37;;;;;;;;;;;8.00;97.80;;;;;;5116618;28;19992;-66
2022/01/21 12:30:26;;;;;;;;;;;8.00;97.50;;;;;;5117221;28;19919;-67
2022/01/21 12:32:54;;;;;;;;;;;8.00;97.60;;;;;;5115753;27;19915;-64
2022/01/21 12:35:20;;;;;;;;;;;8.20;98.80;;;;;;5130095;27;19950;-67
2022/01/21 12:40:55;;;;;;;;;;;8.20;98.50;;;;;;5087195;27;20308;-66
2022/01/21 12:43:39;;;;;;;;;;;8.40;98.70;;;;;;5124593;27;19912;-67
2022/01/21 12:46:06;;;;;;;;;;;8.30;97.60;;;;;;5125765;27;19930;-67
2022/01/21 12:48:34;;;;;;;;;;;8.30;98.30;;;;;;5125830;27;19954;-67
2022/01/21 12:56:43;;;;;;;;;;;8.30;97.30;;;;;;5127479;27;20395;-66
2022/01/21 12:59:14;;;;;;;;;;;8.20;95.60;;;;;;5123763;27;19915;-68
2022/01/21 13:01:39;;;;;;;;;;;8.30;97.00;;;;;;5135297;27;19914;-68
2022/01/21 13:04:18;;;;;;;;;;;8.30;96.90;;;;;;5121190;27;20017;-68
2022/01/21 13:06:52;;;;;;;;;;;8.40;97.50;;;;;;5133096;27;20315;-68
2022/01/21 13:09:21;;;;;;;;;;;8.40;96.80;;;;;;5132940;27;19963;-68
2022/01/21 13:11:54;;;;;;;;;;;8.40;96.80;;;;;;5131254;27;19916;-68
2022/01/21 13:16:54;;;;;;;;;;;8.40;96.20;;;;;;5118063;27;19966;-67
2022/01/21 13:19:19;;;;;;;;;;;8.40;97.10;;;;;;5134002;27;19968;-67
2022/01/21 13:21:45;;;;;;;;;;;8.50;95.80;;;;;;5120827;27;19911;-67
2022/01/21 13:24:25;;;;;;;;;;;8.50;96.50;;;;;;5131576;27;19983;-66
2022/01/21 13:26:52;;;;;;;;;;;8.60;97.00;;;;;;5126126;27;20402;-65
2022/01/21 13:29:26;;;;;;;;;;;8.60;96.90;;;;;;5123060;27;20006;-69
2022/01/21 13:31:53;;;;;;;;;;;8.50;96.10;;;;;;5120163;27;19915;-65
2022/01/21 13:34:20;;;;;;;;;;;8.50;95.90;;;;;;5124547;27;20010;-67
2022/01/21 13:36:47;;;;;;;;;;;8.50;96.50;;;;;;5125341;27;20015;-66
2022/01/21 13:39:14;;;;;;;;;;;8.60;96.40;;;;;;5127131;27;20541;-68
2022/01/21 13:41:47;;;;;;;;;;;8.60;97.10;;;;;;5128487;27;19949;-66
2022/01/21 13:44:12;;;;;;;;;;;8.70;96.80;;;;;;5131667;27;19914;-67
2022/01/21 13:46:39;;;;;;;;;;;8.80;94.70;;;;;;5131811;27;20001;-64
2022/01/21 13:49:05;;;;;;;;;;;8.80;95.50;;;;;;5129253;27;19907;-70
2022/01/21 13:51:31;;;;;;;;;;;8.90;93.40;;;;;;5127476;27;20280;-67
2022/01/21 13:54:10;;;;;;;;;;;8.90;92.00;;;;;;5132152;27;19912;-68
2022/01/21 13:56:45;;;;;;;;;;;8.90;91.90;;;;;;5132186;27;19912;-67
2022/01/21 13:59:11;;;;;;;;;;;8.90;93.50;;;;;;5130175;27;19911;-67
2022/01/21 14:01:36;;;;;;;;;;;8.80;95.20;;;;;;5122808;27;20005;-66
2022/01/21 14:04:08;;;;;;;;;;;8.90;95.30;;;;;;5130188;27;19958;-67
2022/01/21 14:06:33;;;;;;;;;;;8.90;94.80;;;;;;5125232;27;19924;-68
2022/01/21 14:09:01;;;;;;;;;;;8.80;94.50;;;;;;5127566;27;19919;-66
2022/01/21 14:11:40;;;;;;;;;;;8.70;94.30;;;;;;5131049;27;19915;-66
2022/01/21 14:14:09;;;;;;;;;;;8.70;94.40;;;;;;5123439;27;20130;-67
2022/01/21 14:16:40;;;;;;;;;;;8.60;94.70;;;;;;5125028;27;19915;-68
2022/01/21 14:19:09;;;;;;;;;;;8.60;94.60;;;;;;5126759;27;19935;-65
2022/01/21 14:21:36;;;;;;;;;;;8.50;94.00;;;;;;5129709;27;19911;-65
2022/01/21 14:24:18;;;;;;;;;;;8.50;94.00;;;;;;5131709;27;20327;-68
2022/01/21 14:26:50;;;;;;;;;;;8.40;93.90;;;;;;5131037;27;20311;-68
2022/01/21 14:29:36;;;;;;;;;;;8.50;94.60;;;;;;5128537;27;20422;-67
2022/01/21 14:32:41;;;;;;;;;;;8.60;94.20;;;;;;5120857;27;19923;-68
2022/01/21 14:35:11;;;;;;;;;;;8.60;94.50;;;;;;5082001;27;19934;-65
2022/01/21 14:37:38;;;;;;;;;;;8.50;94.20;;;;;;5126615;27;19950;-66
2022/01/21 14:40:04;;;;;;;;;;;8.40;94.10;;;;;;5127887;27;20368;-67
2022/01/21 14:42:30;;;;;;;;;;;8.40;94.30;;;;;;5129340;27;20261;-66
2022/01/21 14:44:57;;;;;;;;;;;8.40;94.30;;;;;;5131388;27;20018;-66
2022/01/21 14:47:30;;;;;;;;;;;8.40;95.00;;;;;;5128388;27;19931;-67
2022/01/21 14:50:02;;;;;;;;;;;8.50;95.10;;;;;;5119119;27;19980;-65
2022/01/21 14:52:46;;;;;;;;;;;8.40;94.20;;;;;;5130819;27;20115;-65
2022/01/21 14:55:30;;;;;;;;;;;8.40;94.00;;;;;;5128686;27;19912;-66
2022/01/21 14:57:57;;;;;;;;;;;8.40;93.80;;;;;;5125506;27;19950;-66
2022/01/21 15:00:29;;;;;;;;;;;8.40;94.30;;;;;;5129597;27;19918;-67
2022/01/21 15:03:21;;;;;;;;;;;8.40;93.80;;;;;;5126271;27;19954;-65
2022/01/21 15:05:49;;;;;;;;;;;8.40;94.50;;;;;;5125776;27;19922;-64
2022/01/21 15:08:32;;;;;;;;;;;8.30;95.90;;;;;;5119239;27;19912;-65
2022/01/21 15:11:19;;;;;;;;;;;8.30;95.40;;;;;;5124955;27;19911;-66
2022/01/21 15:16:28;;;;;;;;;;;8.30;93.70;;;;;;5119740;27;19938;-66
2022/01/21 15:18:54;;;;;;;;;;;8.30;94.40;;;;;;5121472;27;20388;-66
2022/01/21 15:21:20;;;;;;;;;;;8.20;93.50;;;;;;5118546;27;19917;-66
2022/01/21 15:23:52;;;;;;;;;;;8.20;93.90;;;;;;5132027;27;19907;-65
2022/01/21 15:26:19;;;;;;;;;;;8.10;94.60;;;;;;5125555;27;20493;-66
2022/01/21 15:28:45;;;;;;;;;;;8.10;94.40;;;;;;5129819;27;19911;-67
2022/01/21 15:31:11;;;;;;;;;;;8.10;94.00;;;;;;5117416;27;19969;-67
2022/01/21 15:33:36;;;;;;;;;;;8.00;94.00;;;;;;5129958;27;19911;-67
2022/01/21 15:36:03;;;;;;;;;;;8.00;94.40;;;;;;5125246;27;19915;-67
2022/01/21 15:38:29;;;;;;;;;;;8.10;95.60;;;;;;5123477;27;19964;-66
2022/01/21 15:40:54;;;;;;;;;;;7.90;96.30;;;;;;5121939;27;19937;-66
2022/01/21 15:43:20;;;;;;;;;;;7.80;96.50;;;;;;5125099;27;21333;-67